createdAt,value
2023-11-20T00:01:56.639Z,100.00
2023-11-20T00:07:01.015Z,96.97
2023-11-20T00:12:04.805Z,99.16
2023-11-20T00:17:07.824Z,98.40
2023-11-20T00:22:12.132Z,98.20
2023-11-20T00:27:16.616Z,99.80
2023-11-20T00:32:19.691Z,99.29
2023-11-20T00:37:24.042Z,99.68
2023-11-20T00:42:27.010Z,99.19
2023-11-20T00:47:29.971Z,98.06
2023-11-20T00:52:35.940Z,98.56
2023-11-20T00:57:39.558Z,98.18
2023-11-20T01:02:44.263Z,98.95
2023-11-20T01:07:49.167Z,98.16
2023-11-20T01:12:52.231Z,99.01
2023-11-20T01:17:55.229Z,99.37
2023-11-20T01:22:59.735Z,97.87
2023-11-20T01:28:02.817Z,98.04
2023-11-20T01:33:05.825Z,98.91
2023-11-20T01:38:10.227Z,98.13
2023-11-20T01:43:13.429Z,97.81
2023-11-20T01:48:16.790Z,98.19
2023-11-20T01:53:21.389Z,97.99
2023-11-20T01:58:26.272Z,98.52
2023-11-20T02:03:29.277Z,99.35
2023-11-20T02:08:33.706Z,99.44
2023-11-20T02:13:37.317Z,100.00
2023-11-20T02:18:40.280Z,99.80
2023-11-20T02:23:44.642Z,99.28
2023-11-20T02:28:54.570Z,99.69
2023-11-20T02:34:02.347Z,99.33
2023-11-20T02:39:06.984Z,99.40
2023-11-20T02:44:10.083Z,100.00
2023-11-20T02:49:15.985Z,100.00
2023-11-20T02:54:18.972Z,100.00
2023-11-20T02:59:22.035Z,100.00
2023-11-20T03:04:26.694Z,100.00
2023-11-20T03:09:29.628Z,100.00
2023-11-20T03:14:32.508Z,100.00
2023-11-20T03:19:36.840Z,100.00
2023-11-20T03:24:39.818Z,100.00
2023-11-20T03:29:45.167Z,100.00
2023-11-20T03:34:49.570Z,100.00
2023-11-20T03:39:52.595Z,100.00
2023-11-20T03:44:55.635Z,100.00
2023-11-20T03:49:59.934Z,100.00
2023-11-20T03:55:02.901Z,100.00
2023-11-20T04:00:06.945Z,100.00
2023-11-20T04:05:11.511Z,100.00
2023-11-20T04:10:14.520Z,100.00
2023-11-20T04:15:17.505Z,100.00
2023-11-20T04:20:22.152Z,100.00
2023-11-20T04:25:25.604Z,100.00
2023-11-20T04:30:29.594Z,100.00
2023-11-20T04:35:33.972Z,100.00
2023-11-20T04:40:37.226Z,100.00
2023-11-20T04:45:40.208Z,100.00
2023-11-20T04:50:44.587Z,100.00
2023-11-20T04:55:47.485Z,100.00
2023-11-20T05:00:50.924Z,100.00
2023-11-20T05:05:55.314Z,100.00
2023-11-20T05:10:58.236Z,100.00
2023-11-20T05:16:01.256Z,100.00
2023-11-20T05:21:06.281Z,100.00
2023-11-20T05:26:10.570Z,100.00
2023-11-20T05:31:13.576Z,100.00
2023-11-20T05:36:17.980Z,100.00
2023-11-20T05:41:20.970Z,100.00
2023-11-20T05:46:24.138Z,100.00
2023-11-20T05:51:28.490Z,100.00
2023-11-20T05:56:32.482Z,100.00
2023-11-20T06:01:39.214Z,100.00
2023-11-20T06:06:43.643Z,100.00
2023-11-20T06:11:50.322Z,100.00
2023-11-20T06:16:53.331Z,100.00
2023-11-20T06:21:57.959Z,100.00
2023-11-20T06:27:01.048Z,100.00
2023-11-20T06:32:04.125Z,100.00
2023-11-20T06:37:08.955Z,100.00
2023-11-20T06:42:11.878Z,100.00
2023-11-20T06:47:14.927Z,100.00
2023-11-20T06:52:19.534Z,100.00
2023-11-20T06:57:24.187Z,100.00
2023-11-20T07:02:27.428Z,99.72
2023-11-20T07:07:31.961Z,94.13
2023-11-20T07:12:35.055Z,92.21
2023-11-20T07:17:38.632Z,89.32
2023-11-20T07:22:43.049Z,88.11
2023-11-20T07:27:46.054Z,84.62
2023-11-20T07:32:49.381Z,82.45
2023-11-20T07:37:53.779Z,79.70
2023-11-20T07:42:57.504Z,74.62
2023-11-20T07:48:01.019Z,75.48
2023-11-20T07:53:06.270Z,70.15
2023-11-20T07:58:09.222Z,66.88
2023-11-20T08:03:12.257Z,62.60
2023-11-20T08:08:16.577Z,61.10
2023-11-20T08:13:19.520Z,59.06
2023-11-20T08:18:22.593Z,57.17
2023-11-20T08:23:26.973Z,58.20
2023-11-20T08:28:29.859Z,57.22
2023-11-20T08:33:33.113Z,57.29
2023-11-20T08:38:37.654Z,59.58
2023-11-20T08:43:41.274Z,59.65
2023-11-20T08:48:44.762Z,61.05
2023-11-20T08:53:49.221Z,61.01
2023-11-20T08:58:52.203Z,62.72
2023-11-20T09:03:55.707Z,63.84
2023-11-20T09:09:00.263Z,63.50
2023-11-20T09:14:03.146Z,63.94
2023-11-20T09:19:06.292Z,65.12
2023-11-20T09:24:11.157Z,66.68
2023-11-20T09:29:14.241Z,67.45
2023-11-20T09:34:19.994Z,67.04
2023-11-20T09:39:24.399Z,66.69
2023-11-20T09:44:29.238Z,66.51
2023-11-20T09:49:34.790Z,66.54
2023-11-20T09:54:42.313Z,67.07
2023-11-20T09:59:45.776Z,67.46
2023-11-20T10:04:55.084Z,67.52
2023-11-20T10:10:00.111Z,67.55
2023-11-20T10:15:03.381Z,67.88
2023-11-20T10:20:10.790Z,67.00
2023-11-20T10:25:15.259Z,66.47
2023-11-20T10:30:20.671Z,65.42
2023-11-20T10:35:24.265Z,64.95
2023-11-20T10:40:28.620Z,64.45
2023-11-20T10:45:31.555Z,64.27
2023-11-20T10:50:36.334Z,62.63
2023-11-20T10:55:45.293Z,62.13
2023-11-20T11:00:51.007Z,62.52
2023-11-20T11:05:54.703Z,61.61
2023-11-20T11:10:59.925Z,60.23
2023-11-20T11:16:07.835Z,58.99
2023-11-20T11:21:13.303Z,59.10
2023-11-20T11:26:23.897Z,59.81
2023-11-20T11:31:37.434Z,59.48
2023-11-20T11:36:51.076Z,56.33
2023-11-20T11:42:10.332Z,56.19
2023-11-20T11:47:16.010Z,54.59
2023-11-20T11:52:28.123Z,54.77
2023-11-20T11:57:33.097Z,53.87
2023-11-20T12:03:10.971Z,52.12
2023-11-20T12:08:14.441Z,50.25
2023-11-20T12:13:19.693Z,49.28
2023-11-20T12:18:25.360Z,46.39
2023-11-20T12:23:31.485Z,43.58
2023-11-20T12:28:37.676Z,43.89
2023-11-20T12:33:43.168Z,43.67
2023-11-20T12:38:47.513Z,43.58
2023-11-20T12:43:51.877Z,43.20
2023-11-20T12:48:54.849Z,42.54
2023-11-20T12:53:58.904Z,42.17
2023-11-20T12:59:03.213Z,42.47
2023-11-20T13:04:07.380Z,43.63
2023-11-20T13:09:10.694Z,44.81
2023-11-20T13:14:15.901Z,44.83
2023-11-20T13:19:40.867Z,45.28
2023-11-20T13:24:56.430Z,45.22
2023-11-20T13:30:16.682Z,45.66
2023-11-20T13:35:21.055Z,45.64
2023-11-20T13:40:30.759Z,46.18
2023-11-20T13:45:41.339Z,46.66
2023-11-20T13:50:45.921Z,47.16
2023-11-20T13:55:50.376Z,48.53
2023-11-20T14:00:58.238Z,49.37
2023-11-20T14:06:02.109Z,49.99
2023-11-20T14:11:05.609Z,50.51
2023-11-20T14:16:13.757Z,50.84
2023-11-20T14:21:18.028Z,51.59
2023-11-20T14:26:29.543Z,52.34
2023-11-20T14:31:40.088Z,53.50
2023-11-20T14:36:43.573Z,54.12
2023-11-20T14:41:46.475Z,55.23
2023-11-20T14:46:50.798Z,55.66
2023-11-20T14:51:54.277Z,56.83
2023-11-20T14:56:57.374Z,57.98
2023-11-20T15:02:02.697Z,58.99
2023-11-20T15:07:06.170Z,59.22
2023-11-20T15:12:10.076Z,60.46
2023-11-20T15:17:14.726Z,61.46
2023-11-20T15:22:17.847Z,62.87
2023-11-20T15:27:21.929Z,63.69
2023-11-20T15:32:26.297Z,64.42
2023-11-20T15:37:30.690Z,65.18
2023-11-20T15:42:33.886Z,65.28
2023-11-20T15:47:39.380Z,66.08
2023-11-20T15:52:42.658Z,65.05
2023-11-20T15:57:47.352Z,65.01
2023-11-20T16:02:51.662Z,65.65
2023-11-20T16:07:54.577Z,66.10
2023-11-20T16:12:57.532Z,66.18
